createdAt,value
2018-03-11T00:00:45.692Z,3.32
2018-03-11T00:01:34.736Z,3.16
2018-03-11T00:02:23.783Z,3.16
2018-03-11T00:03:12.847Z,3.16
2018-03-11T00:04:01.909Z,3.17
2018-03-11T00:04:50.950Z,3.29
2018-03-11T00:05:40.001Z,3.36
2018-03-11T00:06:29.060Z,3.28
2018-03-11T00:07:18.153Z,3.11
2018-03-11T00:08:07.194Z,2.98
2018-03-11T00:08:56.227Z,2.92
2018-03-11T00:09:45.279Z,2.87
2018-03-11T00:10:34.312Z,2.88
2018-03-11T00:11:23.346Z,2.89
2018-03-11T00:12:12.383Z,2.98
2018-03-11T00:13:01.800Z,3.08
2018-03-11T00:13:50.840Z,3.17
2018-03-11T00:14:40.536Z,3.23
2018-03-11T00:15:29.552Z,3.25
2018-03-11T00:16:18.593Z,3.36
2018-03-11T00:17:07.668Z,3.33
2018-03-11T00:17:56.704Z,3.33
2018-03-11T00:18:45.810Z,3.27
2018-03-11T00:19:34.869Z,3.27
2018-03-11T00:20:23.924Z,3.31
2018-03-11T00:21:12.974Z,3.23
2018-03-11T00:22:02.048Z,3.22
2018-03-11T00:22:51.110Z,3.22
2018-03-11T00:23:40.222Z,3.26
2018-03-11T00:24:29.267Z,3.33
2018-03-11T00:25:18.310Z,3.38
2018-03-11T00:26:07.360Z,3.41
2018-03-11T00:26:56.406Z,3.42
2018-03-11T00:27:45.505Z,3.44
2018-03-11T00:28:34.560Z,3.21
2018-03-11T00:29:23.612Z,3.14
2018-03-11T00:30:12.950Z,3.06
2018-03-11T00:31:02.010Z,2.88
2018-03-11T00:31:51.053Z,2.81
2018-03-11T00:32:40.171Z,2.68
2018-03-11T00:33:29.219Z,2.56
2018-03-11T00:34:18.269Z,2.59
2018-03-11T00:35:07.313Z,2.67
2018-03-11T00:35:56.838Z,2.80
2018-03-11T00:36:45.896Z,2.86
2018-03-11T00:37:34.985Z,2.78
2018-03-11T00:38:24.038Z,2.78
2018-03-11T00:39:13.088Z,2.77
2018-03-11T00:40:02.142Z,2.73
2018-03-11T00:40:51.390Z,2.59
2018-03-11T00:41:40.482Z,2.55
2018-03-11T00:42:29.533Z,2.66
2018-03-11T00:43:18.598Z,2.58
2018-03-11T00:44:07.660Z,2.43
2018-03-11T00:44:56.733Z,2.33
2018-03-11T00:45:45.785Z,2.32
2018-03-11T00:46:34.850Z,2.30
2018-03-11T00:47:23.996Z,2.39
2018-03-11T00:48:13.033Z,2.34
2018-03-11T00:49:02.130Z,2.31
2018-03-11T00:49:51.185Z,2.28
2018-03-11T00:50:40.302Z,2.30
2018-03-11T00:51:29.347Z,2.29
2018-03-11T00:52:18.392Z,2.18
2018-03-11T00:53:07.808Z,2.23
2018-03-11T00:53:56.851Z,2.09
2018-03-11T00:54:45.883Z,1.91
2018-03-11T00:55:34.934Z,1.81
2018-03-11T00:56:23.976Z,1.72
2018-03-11T00:57:13.038Z,1.57
2018-03-11T00:58:02.129Z,1.52
2018-03-11T00:58:51.177Z,1.48
2018-03-11T00:59:40.228Z,1.35
2018-03-11T01:00:29.264Z,1.34
2018-03-11T01:01:18.545Z,1.28
2018-03-11T01:02:07.592Z,1.28
2018-03-11T01:02:56.648Z,1.32
2018-03-11T01:03:46.054Z,1.33
2018-03-11T01:04:35.100Z,1.35
2018-03-11T01:05:24.154Z,1.40
2018-03-11T01:06:13.255Z,1.46
2018-03-11T01:07:02.291Z,1.56
2018-03-11T01:07:51.359Z,1.56
2018-03-11T01:08:40.414Z,1.58
2018-03-11T01:09:29.955Z,1.55
2018-03-11T01:10:18.997Z,1.52
2018-03-11T01:11:08.043Z,1.50
2018-03-11T01:11:57.084Z,1.64
2018-03-11T01:12:46.167Z,1.74
2018-03-11T01:13:35.226Z,1.79
2018-03-11T01:14:24.266Z,1.70
2018-03-11T01:15:13.320Z,1.66
2018-03-11T01:16:02.372Z,1.66
2018-03-11T01:16:51.415Z,1.75
2018-03-11T01:17:40.469Z,1.95
2018-03-11T01:18:29.568Z,2.00
2018-03-11T01:19:18.609Z,2.05
2018-03-11T01:20:07.660Z,2.09
2018-03-11T01:20:56.691Z,2.13
2018-03-11T01:21:45.784Z,2.19
2018-03-11T01:22:34.924Z,2.20
2018-03-11T01:23:23.974Z,2.25
2018-03-11T01:24:13.019Z,2.29
2018-03-11T01:25:02.070Z,2.32
2018-03-11T01:25:51.117Z,2.23
2018-03-11T01:26:40.151Z,2.22
2018-03-11T01:27:29.205Z,2.28
2018-03-11T01:28:18.324Z,2.26
2018-03-11T01:29:07.383Z,2.33
2018-03-11T01:29:56.739Z,2.44
2018-03-11T01:30:45.784Z,2.47
2018-03-11T01:31:34.833Z,2.44
2018-03-11T01:32:23.869Z,2.36
2018-03-11T01:33:12.920Z,2.28
2018-03-11T01:34:02.394Z,2.19
2018-03-11T01:34:51.452Z,2.27
2018-03-11T01:35:40.500Z,2.20
2018-03-11T01:36:29.559Z,2.05
2018-03-11T01:37:18.614Z,2.14
2018-03-11T01:38:07.653Z,2.20
2018-03-11T01:38:56.794Z,2.26
2018-03-11T01:39:45.886Z,2.25
2018-03-11T01:40:34.928Z,2.31
2018-03-11T01:41:23.970Z,2.39
2018-03-11T01:42:13.008Z,2.40
2018-03-11T01:43:02.052Z,2.39
2018-03-11T01:43:51.097Z,2.40
2018-03-11T01:44:40.189Z,2.41
2018-03-11T01:45:29.238Z,2.38
2018-03-11T01:46:18.287Z,2.31
2018-03-11T01:47:07.326Z,2.27
2018-03-11T01:47:56.377Z,2.31
2018-03-11T01:48:45.420Z,2.34
2018-03-11T01:49:34.466Z,2.43
2018-03-11T01:50:23.557Z,2.44
2018-03-11T01:51:12.595Z,2.51
2018-03-11T01:52:01.635Z,2.53
2018-03-11T01:53:02.513Z,2.49
2018-03-11T01:53:51.958Z,2.56
2018-03-11T01:54:41.005Z,2.55
2018-03-11T01:55:30.149Z,2.45
2018-03-11T01:56:19.388Z,2.39
2018-03-11T01:57:08.434Z,2.43
2018-03-11T01:57:57.492Z,2.40
2018-03-11T01:58:46.531Z,2.49
2018-03-11T01:59:35.580Z,2.49
2018-03-11T02:00:24.642Z,2.43
2018-03-11T02:01:14.215Z,2.35
2018-03-11T02:02:03.287Z,2.26
2018-03-11T02:02:52.339Z,2.24
2018-03-11T02:03:41.440Z,2.29
2018-03-11T02:04:30.565Z,2.29
2018-03-11T02:05:19.614Z,2.27
2018-03-11T02:06:08.662Z,2.22
2018-03-11T02:06:57.713Z,2.19
2018-03-11T02:07:46.780Z,2.21
2018-03-11T02:08:35.832Z,2.17
2018-03-11T02:09:24.879Z,2.15
2018-03-11T02:10:13.962Z,2.14
2018-03-11T02:11:03.144Z,2.18
2018-03-11T02:11:52.420Z,2.26
2018-03-11T02:12:41.453Z,2.12
2018-03-11T02:13:30.487Z,2.07
2018-03-11T02:14:19.549Z,2.03
2018-03-11T02:15:08.589Z,2.06
2018-03-11T02:15:57.709Z,2.00
2018-03-11T02:16:46.756Z,1.88
2018-03-11T02:17:35.828Z,1.87
2018-03-11T02:18:25.201Z,1.85
2018-03-11T02:19:14.248Z,1.72
2018-03-11T02:20:03.396Z,1.57
2018-03-11T02:20:52.427Z,1.43
2018-03-11T02:21:41.485Z,1.38
2018-03-11T02:22:30.542Z,1.20
2018-03-11T02:23:19.721Z,1.07
2018-03-11T02:24:08.756Z,0.93
2018-03-11T02:24:57.805Z,0.76
2018-03-11T02:25:46.863Z,0.63
2018-03-11T02:26:35.908Z,0.51
2018-03-11T02:27:24.954Z,0.34
2018-03-11T02:28:13.990Z,0.30
2018-03-11T02:29:03.096Z,0.34
2018-03-11T02:29:52.147Z,0.24
2018-03-11T02:30:41.206Z,0.20
2018-03-11T02:31:30.402Z,0.19
2018-03-11T02:32:19.440Z,0.22
2018-03-11T02:33:08.519Z,0.30
2018-03-11T02:33:57.605Z,0.41
2018-03-11T02:34:46.656Z,0.51
2018-03-11T02:35:36.205Z,0.63
2018-03-11T02:36:25.258Z,0.79
2018-03-11T02:37:14.308Z,0.94
2018-03-11T02:38:03.355Z,0.97
2018-03-11T02:38:52.407Z,0.82
2018-03-11T02:39:41.555Z,0.67
2018-03-11T02:40:30.592Z,0.68
2018-03-11T02:41:19.650Z,0.70
2018-03-11T02:42:08.690Z,0.78
2018-03-11T02:42:57.736Z,0.89
2018-03-11T02:43:46.780Z,0.94
2018-03-11T02:44:35.830Z,0.97
2018-03-11T02:45:24.938Z,1.01
2018-03-11T02:46:13.980Z,1.13
2018-03-11T02:47:03.028Z,1.15
2018-03-11T02:47:52.085Z,1.19
2018-03-11T02:48:41.138Z,1.27
2018-03-11T02:49:30.169Z,1.36
2018-03-11T02:50:19.239Z,1.39
2018-03-11T02:51:08.685Z,1.40
2018-03-11T02:51:57.753Z,1.41
2018-03-11T02:52:46.801Z,1.40
2018-03-11T02:53:35.841Z,1.44
2018-03-11T02:54:24.882Z,1.44
2018-03-11T02:55:13.927Z,1.54
2018-03-11T02:56:03.112Z,1.61
2018-03-11T02:56:52.177Z,1.70
2018-03-11T02:57:41.234Z,1.71
2018-03-11T02:58:30.274Z,1.69
2018-03-11T02:59:19.324Z,1.74
2018-03-11T03:00:08.379Z,1.70
2018-03-11T03:00:57.435Z,1.67
2018-03-11T03:01:46.537Z,1.66
2018-03-11T03:02:35.594Z,1.63
2018-03-11T03:03:24.658Z,1.68
2018-03-11T03:04:13.703Z,1.71
2018-03-11T03:05:02.754Z,1.76
2018-03-11T03:05:51.795Z,1.73
2018-03-11T03:06:40.865Z,1.64
2018-03-11T03:07:30.367Z,1.59
2018-03-11T03:08:19.404Z,1.50
2018-03-11T03:09:08.444Z,1.50
2018-03-11T03:09:57.488Z,1.59
2018-03-11T03:10:46.519Z,1.65
2018-03-11T03:11:35.565Z,1.62
2018-03-11T03:12:24.653Z,1.59
2018-03-11T03:13:14.496Z,1.55
2018-03-11T03:14:03.555Z,1.28
2018-03-11T03:14:52.733Z,1.17
2018-03-11T03:15:41.793Z,1.05
2018-03-11T03:16:30.830Z,1.14
2018-03-11T03:17:19.920Z,1.17
2018-03-11T03:18:08.962Z,1.20
2018-03-11T03:18:57.996Z,1.22
2018-03-11T03:19:47.046Z,1.28
2018-03-11T03:20:36.083Z,1.32
2018-03-11T03:21:25.139Z,1.28
2018-03-11T03:22:14.566Z,1.05
2018-03-11T03:23:03.630Z,0.99
2018-03-11T03:23:52.703Z,1.20
2018-03-11T03:24:41.751Z,1.21
2018-03-11T03:25:30.792Z,1.29
2018-03-11T03:26:19.842Z,1.32
2018-03-11T03:27:08.895Z,1.18
2018-03-11T03:27:58.509Z,0.92
2018-03-11T03:28:47.784Z,0.66
2018-03-11T03:29:36.817Z,0.49
2018-03-11T03:30:25.909Z,0.38
2018-03-11T03:31:14.953Z,0.30
2018-03-11T03:32:03.998Z,0.36
2018-03-11T03:32:53.080Z,0.47
2018-03-11T03:33:42.126Z,0.54
2018-03-11T03:34:31.164Z,0.69
2018-03-11T03:35:20.216Z,0.76
2018-03-11T03:36:09.272Z,0.82
2018-03-11T03:36:58.303Z,0.91
2018-03-11T03:37:47.343Z,0.91
2018-03-11T03:38:36.516Z,1.04
2018-03-11T03:39:25.575Z,1.07
2018-03-11T03:40:14.617Z,1.16
2018-03-11T03:41:03.654Z,1.15
2018-03-11T03:41:52.691Z,1.17
2018-03-11T03:42:41.755Z,1.26
2018-03-11T03:43:30.806Z,1.29
2018-03-11T03:44:20.144Z,1.30
2018-03-11T03:45:09.183Z,1.31
2018-03-11T03:45:58.264Z,1.34
2018-03-11T03:46:47.313Z,1.36
2018-03-11T03:47:36.355Z,1.36
2018-03-11T03:48:25.405Z,1.36
2018-03-11T03:49:14.449Z,1.35
2018-03-11T03:50:03.521Z,1.38
2018-03-11T03:50:52.576Z,1.37
2018-03-11T03:51:41.664Z,1.35
2018-03-11T03:52:30.711Z,1.33
2018-03-11T03:53:19.754Z,1.42
2018-03-11T03:54:08.797Z,1.42
2018-03-11T03:54:57.890Z,1.53
2018-03-11T03:55:46.938Z,1.48
2018-03-11T03:56:35.980Z,1.42
2018-03-11T03:57:25.086Z,1.39
2018-03-11T03:58:14.122Z,1.43
2018-03-11T03:59:03.360Z,1.42
2018-03-11T03:59:52.408Z,1.41
2018-03-11T04:00:41.481Z,1.36
2018-03-11T04:01:30.534Z,1.40
2018-03-11T04:02:19.883Z,1.37
2018-03-11T04:03:09.829Z,1.47
2018-03-11T04:03:59.693Z,1.41
2018-03-11T04:04:48.745Z,1.42
2018-03-11T04:05:37.784Z,1.47
2018-03-11T04:06:26.856Z,1.38
2018-03-11T04:07:16.292Z,1.42
2018-03-11T04:08:05.805Z,1.39
2018-03-11T04:08:54.876Z,1.42
2018-03-11T04:09:43.920Z,1.44
2018-03-11T04:10:32.959Z,1.46
2018-03-11T04:11:22.043Z,1.37
2018-03-11T04:12:11.079Z,1.40
2018-03-11T04:13:00.119Z,1.36
2018-03-11T04:13:49.245Z,1.41
2018-03-11T04:14:38.284Z,1.36
2018-03-11T04:15:27.395Z,1.31
2018-03-11T04:16:16.440Z,1.31
2018-03-11T04:17:05.490Z,1.30
2018-03-11T04:17:54.550Z,1.28
2018-03-11T04:18:43.587Z,1.30
2018-03-11T04:19:32.774Z,1.34
2018-03-11T04:20:23.176Z,1.36
2018-03-11T04:21:13.912Z,1.37
2018-03-11T04:22:02.965Z,1.40
2018-03-11T04:22:51.999Z,1.37
2018-03-11T04:23:41.039Z,1.36
2018-03-11T04:24:30.073Z,1.30
2018-03-11T04:25:19.177Z,1.32
2018-03-11T04:26:08.213Z,1.38
2018-03-11T04:26:57.261Z,1.48
2018-03-11T04:27:47.165Z,1.50
2018-03-11T04:28:36.237Z,1.56
2018-03-11T04:29:25.279Z,1.53
2018-03-11T04:30:14.417Z,1.35
2018-03-11T04:31:03.997Z,1.37
2018-03-11T04:31:53.101Z,1.46
2018-03-11T04:32:42.136Z,1.30
2018-03-11T04:33:31.189Z,1.04
2018-03-11T04:34:20.310Z,1.05
2018-03-11T04:35:10.047Z,1.20
2018-03-11T04:35:59.205Z,1.23
2018-03-11T04:36:51.819Z,1.20
2018-03-11T04:37:41.445Z,1.14
2018-03-11T04:38:30.501Z,1.25
2018-03-11T04:39:19.540Z,1.28
2018-03-11T04:40:08.600Z,1.21
2018-03-11T04:40:57.645Z,1.05
2018-03-11T04:41:46.678Z,0.99
2018-03-11T04:42:35.737Z,1.01
2018-03-11T04:43:24.831Z,1.08
2018-03-11T04:44:13.883Z,1.19
2018-03-11T04:45:02.926Z,1.06
2018-03-11T04:45:52.030Z,0.95
2018-03-11T04:46:41.077Z,0.78
2018-03-11T04:47:30.116Z,0.73
2018-03-11T04:48:19.170Z,0.86
2018-03-11T04:49:08.664Z,0.91
2018-03-11T04:49:57.736Z,1.00
2018-03-11T04:50:46.783Z,1.01
2018-03-11T04:51:35.831Z,0.97
2018-03-11T04:52:24.975Z,1.01
2018-03-11T04:53:14.018Z,1.05
2018-03-11T04:54:03.051Z,1.12
2018-03-11T04:54:52.822Z,1.04
2018-03-11T04:55:42.007Z,0.99
2018-03-11T04:56:31.057Z,0.88
2018-03-11T04:57:20.194Z,0.79
2018-03-11T04:58:09.264Z,0.89
2018-03-11T04:58:58.317Z,0.70
2018-03-11T04:59:47.372Z,0.68
2018-03-11T05:00:36.422Z,0.65
2018-03-11T05:01:25.522Z,0.64
2018-03-11T05:02:14.579Z,0.56
2018-03-11T05:03:03.624Z,0.63
2018-03-11T05:03:52.669Z,0.56
2018-03-11T05:04:41.717Z,0.57
2018-03-11T05:05:30.772Z,0.66
2018-03-11T05:06:19.827Z,0.64
2018-03-11T05:07:11.849Z,0.66
2018-03-11T05:08:00.928Z,0.67
2018-03-11T05:08:49.981Z,0.61
2018-03-11T05:09:39.022Z,0.65
2018-03-11T05:10:28.054Z,0.46
2018-03-11T05:11:17.101Z,0.64
2018-03-11T05:12:06.150Z,0.72
2018-03-11T05:12:55.201Z,0.73
2018-03-11T05:13:44.262Z,0.74
2018-03-11T05:14:33.369Z,0.68
2018-03-11T05:15:22.414Z,0.70
2018-03-11T05:16:11.511Z,0.84
2018-03-11T05:17:00.566Z,0.96
2018-03-11T05:17:49.607Z,1.17
2018-03-11T05:18:38.654Z,1.28
2018-03-11T05:19:27.716Z,1.33
2018-03-11T05:20:16.756Z,1.38
2018-03-11T05:21:06.871Z,1.44
2018-03-11T05:21:55.922Z,1.49
2018-03-11T05:22:44.965Z,1.57
2018-03-11T05:23:34.014Z,1.67
2018-03-11T05:24:23.064Z,1.74
2018-03-11T05:25:12.103Z,1.82
2018-03-11T05:26:01.202Z,1.92
2018-03-11T05:26:50.281Z,1.97
2018-03-11T05:27:39.322Z,2.05
2018-03-11T05:28:28.366Z,2.14
2018-03-11T05:29:17.407Z,2.19
2018-03-11T05:30:06.449Z,2.24
2018-03-11T05:30:55.499Z,2.25
2018-03-11T05:31:44.567Z,2.26
2018-03-11T05:32:33.845Z,2.30
2018-03-11T05:33:22.936Z,2.34
2018-03-11T05:34:12.056Z,2.38
2018-03-11T05:35:01.118Z,2.47
2018-03-11T05:35:50.168Z,2.43
2018-03-11T05:36:39.290Z,2.32
2018-03-11T05:37:28.351Z,2.07
2018-03-11T05:38:17.392Z,1.97
2018-03-11T05:39:06.451Z,2.04
2018-03-11T05:39:55.596Z,2.22
2018-03-11T05:40:44.648Z,2.37
2018-03-11T05:41:33.711Z,2.44
2018-03-11T05:42:22.763Z,2.47
2018-03-11T05:43:11.820Z,2.40
2018-03-11T05:44:00.872Z,2.29
2018-03-11T05:44:49.922Z,2.39
2018-03-11T05:45:39.056Z,2.47
2018-03-11T05:46:28.099Z,2.39
2018-03-11T05:47:17.344Z,2.48
2018-03-11T05:48:06.408Z,2.59
2018-03-11T05:48:55.494Z,2.70
2018-03-11T05:49:44.530Z,2.84
2018-03-11T05:50:33.576Z,2.93
2018-03-11T05:51:22.679Z,3.05
2018-03-11T05:52:11.830Z,3.09
2018-03-11T05:53:01.098Z,3.22
2018-03-11T05:53:50.157Z,3.24
2018-03-11T05:54:39.200Z,3.24
2018-03-11T05:55:28.254Z,3.24
2018-03-11T05:56:17.300Z,3.32
2018-03-11T05:57:06.793Z,3.26
2018-03-11T05:57:55.851Z,3.27
2018-03-11T05:58:44.895Z,3.43
2018-03-11T05:59:34.055Z,3.55
2018-03-11T06:00:23.377Z,3.66
2018-03-11T06:01:12.461Z,3.69
2018-03-11T06:02:01.500Z,3.85
2018-03-11T06:02:53.085Z,3.84
2018-03-11T06:03:42.157Z,3.91
2018-03-11T06:04:31.218Z,3.88
2018-03-11T06:05:20.333Z,3.98
2018-03-11T06:06:09.421Z,4.12
2018-03-11T06:06:58.485Z,4.22
2018-03-11T06:07:47.773Z,4.27
2018-03-11T06:08:36.822Z,4.17
2018-03-11T06:09:25.866Z,4.22
2018-03-11T06:10:14.958Z,4.16
2018-03-11T06:11:04.009Z,4.24
2018-03-11T06:11:53.073Z,4.38
2018-03-11T06:12:42.129Z,4.31
2018-03-11T06:13:31.207Z,4.27
2018-03-11T06:14:20.271Z,4.35
2018-03-11T06:15:09.352Z,4.20
2018-03-11T06:15:58.865Z,4.11
2018-03-11T06:16:47.958Z,3.83
2018-03-11T06:17:37.053Z,3.78
2018-03-11T06:18:26.116Z,3.65
2018-03-11T06:19:15.154Z,3.54
2018-03-11T06:20:04.238Z,3.51
2018-03-11T06:20:53.295Z,3.50
2018-03-11T06:21:42.360Z,3.52
2018-03-11T06:22:31.459Z,3.55
2018-03-11T06:23:20.509Z,3.85
2018-03-11T06:24:10.643Z,4.16
2018-03-11T06:24:59.684Z,4.09
2018-03-11T06:25:48.731Z,4.17
2018-03-11T06:26:37.786Z,4.11
2018-03-11T06:27:26.860Z,4.07
2018-03-11T06:28:15.921Z,3.94
2018-03-11T06:29:05.083Z,3.88
2018-03-11T06:29:54.235Z,3.96
2018-03-11T06:30:43.284Z,4.18
2018-03-11T06:31:32.346Z,4.33
2018-03-11T06:32:21.415Z,4.37
2018-03-11T06:33:11.409Z,4.57
2018-03-11T06:34:00.467Z,4.65
2018-03-11T06:34:49.512Z,4.65
2018-03-11T06:35:40.414Z,4.88
2018-03-11T06:36:29.454Z,5.04
2018-03-11T06:37:18.495Z,5.16
2018-03-11T06:38:07.556Z,5.25
2018-03-11T06:38:56.705Z,5.36
2018-03-11T06:39:45.739Z,5.28
2018-03-11T06:40:34.808Z,5.39
2018-03-11T06:41:23.868Z,5.55
2018-03-11T06:42:12.937Z,5.68
2018-03-11T06:43:01.995Z,5.79
2018-03-11T06:43:51.042Z,5.97
2018-03-11T06:44:40.145Z,6.10
2018-03-11T06:45:29.200Z,6.24
2018-03-11T06:46:18.257Z,6.37
2018-03-11T06:47:07.297Z,6.46
2018-03-11T06:47:56.339Z,6.60
2018-03-11T06:48:45.378Z,6.71
2018-03-11T06:49:34.490Z,6.63
2018-03-11T06:50:23.529Z,6.79
2018-03-11T06:51:12.592Z,6.87
2018-03-11T06:52:01.701Z,6.92
2018-03-11T06:52:50.752Z,7.02
2018-03-11T06:53:39.796Z,7.09
2018-03-11T06:54:28.850Z,7.03
2018-03-11T06:55:17.987Z,7.16
2018-03-11T06:56:07.039Z,7.19
2018-03-11T06:56:56.075Z,7.15
2018-03-11T06:57:45.125Z,7.23
2018-03-11T06:58:34.271Z,7.20
2018-03-11T06:59:23.318Z,7.07
2018-03-11T07:00:12.372Z,7.10
2018-03-11T07:01:01.477Z,6.86
2018-03-11T07:01:50.532Z,6.68
2018-03-11T07:02:39.605Z,6.55
2018-03-11T07:03:28.644Z,6.42
2018-03-11T07:04:17.682Z,6.27
2018-03-11T07:05:06.758Z,6.46
2018-03-11T07:05:55.800Z,6.50
2018-03-11T07:06:44.901Z,6.65
2018-03-11T07:07:33.981Z,6.69
2018-03-11T07:08:26.514Z,6.75
2018-03-11T07:09:15.632Z,6.96
2018-03-11T07:10:04.750Z,7.16
2018-03-11T07:10:53.836Z,7.22
2018-03-11T07:11:42.865Z,7.30
2018-03-11T07:12:32.205Z,7.27
2018-03-11T07:13:21.265Z,7.39
2018-03-11T07:14:10.307Z,7.41
2018-03-11T07:15:00.220Z,7.52
2018-03-11T07:15:49.492Z,7.45
2018-03-11T07:16:38.526Z,7.67
2018-03-11T07:17:27.629Z,7.74
2018-03-11T07:18:16.687Z,7.87
2018-03-11T07:19:05.769Z,7.80
2018-03-11T07:19:54.801Z,7.98
2018-03-11T07:20:43.952Z,7.82
2018-03-11T07:21:33.007Z,7.83
2018-03-11T07:22:22.087Z,7.81
2018-03-11T07:23:11.137Z,8.02
2018-03-11T07:24:00.192Z,8.12
2018-03-11T07:24:49.253Z,8.10
2018-03-11T07:25:38.291Z,7.94
2018-03-11T07:26:27.393Z,7.98
2018-03-11T07:27:16.434Z,8.11
2018-03-11T07:28:05.488Z,8.25
2018-03-11T07:28:54.540Z,8.23
2018-03-11T07:29:43.597Z,8.01
2018-03-11T07:30:32.642Z,8.21
2018-03-11T07:31:21.699Z,8.30
2018-03-11T07:32:10.776Z,8.42
2018-03-11T07:32:59.833Z,8.32
2018-03-11T07:33:48.872Z,8.45
2018-03-11T07:34:37.925Z,8.54
2018-03-11T07:35:27.005Z,8.62
2018-03-11T07:36:16.070Z,8.66
2018-03-11T07:37:05.114Z,8.84
2018-03-11T07:37:54.679Z,8.98
2018-03-11T07:38:43.748Z,8.99
2018-03-11T07:39:32.802Z,8.84
2018-03-11T07:40:21.852Z,8.98
2018-03-11T07:41:10.890Z,8.77
2018-03-11T07:41:59.941Z,8.44
2018-03-11T07:42:49.046Z,8.40
2018-03-11T07:43:38.082Z,8.50
2018-03-11T07:44:28.325Z,8.57
2018-03-11T07:45:18.337Z,8.49
2018-03-11T07:46:07.922Z,8.63
2018-03-11T07:46:57.070Z,8.83
2018-03-11T07:47:47.117Z,8.92
2018-03-11T07:48:36.916Z,8.72
2018-03-11T07:49:26.183Z,8.86
2018-03-11T07:50:15.949Z,8.85
2018-03-11T07:51:06.244Z,8.84
2018-03-11T07:51:57.193Z,9.00
2018-03-11T07:52:46.395Z,9.07
2018-03-11T07:53:35.558Z,9.09
2018-03-11T07:54:24.646Z,9.10
2018-03-11T07:55:13.700Z,9.26
2018-03-11T07:56:02.742Z,9.37
2018-03-11T07:56:51.840Z,9.52
2018-03-11T07:57:40.919Z,9.57
2018-03-11T07:58:29.959Z,9.63
2018-03-11T07:59:19.015Z,9.53
2018-03-11T08:00:08.295Z,9.64
2018-03-11T08:00:57.341Z,9.73
2018-03-11T08:01:46.395Z,9.76
2018-03-11T08:02:35.459Z,9.90
2018-03-11T08:03:24.515Z,10.02
2018-03-11T08:04:13.568Z,10.20
2018-03-11T08:05:02.635Z,10.29
2018-03-11T08:05:51.928Z,10.34
2018-03-11T08:06:40.983Z,10.40
2018-03-11T08:07:30.066Z,10.26
2018-03-11T08:08:19.119Z,10.23
2018-03-11T08:09:08.194Z,10.06
2018-03-11T08:09:57.253Z,10.24
2018-03-11T08:10:46.308Z,10.17
2018-03-11T08:11:35.428Z,10.15
2018-03-11T08:12:24.476Z,9.98
2018-03-11T08:13:13.637Z,10.04
2018-03-11T08:14:02.700Z,10.19
2018-03-11T08:14:51.746Z,10.26
2018-03-11T08:15:40.815Z,10.28
2018-03-11T08:16:29.863Z,10.41
2018-03-11T08:17:18.933Z,10.47
2018-03-11T08:18:07.988Z,10.36
2018-03-11T08:18:57.095Z,10.30
2018-03-11T08:19:46.149Z,10.44
2018-03-11T08:20:35.289Z,10.64
2018-03-11T08:21:24.474Z,10.66
2018-03-11T08:22:13.539Z,10.79
2018-03-11T08:23:02.590Z,10.74
2018-03-11T08:23:51.992Z,10.70
2018-03-11T08:24:41.388Z,10.80
2018-03-11T08:25:30.441Z,10.93
2018-03-11T08:26:19.488Z,11.05
2018-03-11T08:27:08.716Z,11.14
2018-03-11T08:27:57.795Z,11.22
2018-03-11T08:28:46.860Z,11.24
2018-03-11T08:29:36.223Z,11.39
2018-03-11T08:30:25.271Z,11.32
2018-03-11T08:31:14.311Z,11.44
2018-03-11T08:32:03.375Z,11.44
2018-03-11T08:32:52.426Z,11.39
2018-03-11T08:33:41.467Z,11.56
2018-03-11T08:34:30.549Z,11.58
2018-03-11T08:35:19.596Z,11.67
2018-03-11T08:36:08.652Z,11.68
2018-03-11T08:36:57.716Z,11.77
2018-03-11T08:37:46.766Z,11.87
2018-03-11T08:38:35.849Z,11.85
2018-03-11T08:39:24.901Z,11.67
2018-03-11T08:40:14.000Z,11.69
2018-03-11T08:41:03.048Z,11.79
2018-03-11T08:41:52.144Z,11.71
2018-03-11T08:42:41.197Z,11.82
2018-03-11T08:43:30.243Z,11.94
2018-03-11T08:44:19.292Z,11.98
2018-03-11T08:45:08.656Z,12.13
2018-03-11T08:45:57.709Z,12.19
2018-03-11T08:46:46.755Z,12.34
2018-03-11T08:47:35.816Z,12.41
2018-03-11T08:48:24.895Z,12.28
2018-03-11T08:49:17.090Z,12.02
2018-03-11T08:50:06.141Z,11.84
2018-03-11T08:50:55.280Z,11.90
2018-03-11T08:51:44.330Z,11.95
2018-03-11T08:52:33.575Z,11.99
2018-03-11T08:53:22.637Z,12.14
2018-03-11T08:54:11.693Z,12.30
2018-03-11T08:55:00.747Z,12.43
2018-03-11T08:55:49.805Z,12.41
2018-03-11T08:56:38.918Z,12.33
2018-03-11T08:57:28.038Z,12.44
2018-03-11T08:58:17.064Z,12.56
2018-03-11T08:59:06.215Z,12.70
2018-03-11T08:59:55.287Z,12.84
2018-03-11T09:00:44.632Z,12.77
2018-03-11T09:01:34.617Z,12.74
2018-03-11T09:02:23.709Z,12.75
2018-03-11T09:03:12.761Z,12.81
2018-03-11T09:04:01.884Z,12.66
2018-03-11T09:04:50.953Z,12.81
2018-03-11T09:05:40.028Z,12.72
2018-03-11T09:06:29.096Z,12.68
2018-03-11T09:07:18.177Z,12.84
2018-03-11T09:08:07.293Z,12.83
2018-03-11T09:08:56.352Z,12.73
2018-03-11T09:09:45.535Z,12.84
2018-03-11T09:10:34.627Z,12.92
2018-03-11T09:11:23.721Z,13.11
2018-03-11T09:12:12.800Z,13.16
2018-03-11T09:13:01.874Z,13.27
2018-03-11T09:13:50.956Z,13.01
2018-03-11T09:14:40.000Z,13.06
2018-03-11T09:15:46.497Z,13.24
2018-03-11T09:16:35.562Z,13.47
2018-03-11T09:17:24.788Z,13.47
2018-03-11T09:18:13.847Z,13.58
2018-03-11T09:19:03.094Z,13.48
2018-03-11T09:19:52.493Z,13.63
2018-03-11T09:20:41.593Z,13.70
2018-03-11T09:21:30.643Z,13.80
2018-03-11T09:22:19.731Z,13.93
2018-03-11T09:23:08.862Z,14.04
2018-03-11T09:23:57.923Z,13.98
2018-03-11T09:24:46.984Z,13.86
2018-03-11T09:25:36.044Z,13.81
2018-03-11T09:26:25.122Z,13.68
2018-03-11T09:27:14.194Z,13.93
2018-03-11T09:28:03.274Z,13.81
2018-03-11T09:28:52.416Z,13.85
2018-03-11T09:29:41.554Z,13.77
2018-03-11T09:30:30.764Z,13.74
2018-03-11T09:31:19.889Z,13.87
2018-03-11T09:32:08.968Z,13.77
2018-03-11T09:32:58.021Z,13.97
2018-03-11T09:33:47.088Z,13.88
2018-03-11T09:34:36.150Z,13.83
2018-03-11T09:35:25.309Z,13.99
2018-03-11T09:36:14.363Z,14.17
2018-03-11T09:37:03.410Z,14.23
2018-03-11T09:37:52.462Z,14.22
2018-03-11T09:38:41.516Z,14.28
2018-03-11T09:39:30.559Z,14.38
2018-03-11T09:40:19.643Z,14.30
2018-03-11T09:41:10.621Z,14.48
2018-03-11T09:41:59.681Z,14.68
2018-03-11T09:42:48.726Z,14.88
2018-03-11T09:43:37.801Z,14.91
2018-03-11T09:44:26.852Z,14.91
2018-03-11T09:45:15.950Z,15.07
2018-03-11T09:46:05.075Z,15.15
2018-03-11T09:46:54.173Z,15.23
2018-03-11T09:47:43.224Z,15.27
2018-03-11T09:48:32.398Z,15.46
2018-03-11T09:49:21.452Z,15.56
2018-03-11T09:50:10.712Z,15.61
2018-03-11T09:50:59.909Z,15.74
2018-03-11T09:51:49.776Z,15.76
2018-03-11T09:52:40.117Z,15.82
2018-03-11T09:53:29.422Z,15.93
2018-03-11T09:54:18.593Z,15.86
2018-03-11T09:55:07.699Z,15.76
2018-03-11T09:55:56.825Z,15.95
2018-03-11T09:56:46.006Z,15.82
2018-03-11T09:57:35.061Z,15.82
2018-03-11T09:58:27.178Z,15.67
2018-03-11T09:59:16.346Z,15.64
2018-03-11T10:00:05.412Z,15.83
2018-03-11T10:00:54.493Z,15.88
2018-03-11T10:01:43.532Z,16.01
2018-03-11T10:02:32.580Z,16.11
2018-03-11T10:03:21.630Z,16.21
2018-03-11T10:04:10.676Z,16.35
2018-03-11T10:04:59.781Z,16.42
2018-03-11T10:05:49.501Z,16.48
2018-03-11T10:06:39.167Z,16.53
2018-03-11T10:07:28.235Z,16.54
2018-03-11T10:08:17.704Z,16.77
2018-03-11T10:09:07.065Z,16.85
2018-03-11T10:09:56.229Z,16.87
2018-03-11T10:10:45.287Z,16.88
2018-03-11T10:11:34.342Z,16.44
2018-03-11T10:12:23.380Z,16.52
2018-03-11T10:13:12.435Z,16.65
2018-03-11T10:14:01.499Z,16.75
2018-03-11T10:14:50.546Z,16.79
2018-03-11T10:15:39.847Z,16.83
2018-03-11T10:16:28.898Z,16.95
2018-03-11T10:17:17.957Z,17.07
2018-03-11T10:18:07.010Z,17.12
2018-03-11T10:18:56.047Z,17.25
2018-03-11T10:19:45.107Z,17.40
2018-03-11T10:20:34.159Z,17.28
2018-03-11T10:21:23.794Z,17.36
2018-03-11T10:22:12.836Z,17.47
2018-03-11T10:23:01.885Z,17.55
2018-03-11T10:23:50.931Z,17.41
2018-03-11T10:24:39.987Z,17.23
2018-03-11T10:25:29.038Z,17.25
2018-03-11T10:26:18.150Z,17.32
2018-03-11T10:27:07.197Z,17.39
2018-03-11T10:27:56.236Z,16.95
2018-03-11T10:28:45.278Z,17.00
2018-03-11T10:29:34.334Z,17.18
2018-03-11T10:30:23.412Z,17.10
2018-03-11T10:31:12.464Z,17.02
2018-03-11T10:32:01.564Z,17.06
2018-03-11T10:32:50.794Z,17.21
2018-03-11T10:33:40.041Z,17.37
2018-03-11T10:34:29.097Z,17.41
2018-03-11T10:35:18.153Z,17.64
2018-03-11T10:36:07.218Z,17.83
2018-03-11T10:36:56.264Z,17.75
2018-03-11T10:37:45.360Z,17.71
2018-03-11T10:38:34.465Z,17.62
2018-03-11T10:39:23.501Z,17.79
2018-03-11T10:40:12.548Z,17.89
2018-03-11T10:41:04.049Z,17.89
2018-03-11T10:41:53.110Z,18.06
2018-03-11T10:42:42.205Z,18.24
2018-03-11T10:43:31.276Z,18.42
2018-03-11T10:44:20.368Z,18.61
2018-03-11T10:45:09.420Z,18.76
2018-03-11T10:45:58.464Z,18.65
2018-03-11T10:46:47.512Z,18.81
2018-03-11T10:47:36.576Z,18.89
2018-03-11T10:48:25.626Z,19.01
2018-03-11T10:49:14.728Z,19.07